Athol, Massachusetts
Current Conditions -  °F | °C
As of 11:52 AM on Friday 24 Oct 2014 (Local Time) from KORE Reporting Station
Overcast Overcast  
Wind Chill:   Ceiling: 1700
Heat Index:   Visibility: 10mi
Dew Point:   Wind: 10mph
Humidity: 80%   Direction: 320°NW
Pressure: 29.76"   Gusts: NA
Location:  42.59°N, 72.23°W
Report Text: KORE 241552Z AUTO 32009KT 10SM OVC017 09/06 A2976 RMK AO2 SLP080 T00890056
Loading
Personal Weather Stations






























Interactive Weather Map
Tropical Storm Tracking
New forecast layout! Learn more

10-Day Weather Forecast

Advertisements
Track Severe Weather on mobile